Time;durP1;ratioP1;P1;durP2;ratioP2;P2;SDS_P1;SDS_P2;PMS_P1;PMS_P2;Temp;Humidity;BMP_temperature;BMP_pressure;BME280_temperature;BME280_humidity;BME280_pressure;Samples;Min_cycle;Max_cycle;Signal;HPM_P1;HPM_P2
2021/12/25 00:02:05;;;;;;;;;;;;;;;7.78;100.00;99362.13;5100782;28;19916;-81
2021/12/25 00:04:30;;;;;;;;;;;;;;;7.82;100.00;99368.72;5102997;28;19920;-83
2021/12/25 00:06:55;;;;;;;;;;;;;;;7.87;100.00;99365.63;5102250;28;19943;-79
2021/12/25 00:09:20;;;;;;;;;;;;;;;7.85;100.00;99360.50;5091571;28;20445;-82
2021/12/25 00:11:45;;;;;;;;;;;;;;;7.88;100.00;99354.91;5084784;28;19928;-82
2021/12/25 00:14:12;;;;;;;;;;;;;;;7.90;100.00;99356.56;5100778;28;19939;-81
2021/12/25 00:16:37;;;;;;;;;;;;;;;7.89;100.00;99353.13;5091348;28;19920;-82
2021/12/25 00:19:03;;;;;;;;;;;;;;;7.83;100.00;99353.75;5108647;28;19959;-82
2021/12/25 00:21:28;;;;;;;;;;;;;;;7.81;100.00;99356.53;5109366;28;19928;-82
2021/12/25 00:23:53;;;;;;;;;;;;;;;7.87;100.00;99355.91;5081077;28;19920;-81
2021/12/25 00:27:04;;;;;;;;;;;;;;;7.91;100.00;99350.31;5097562;28;19930;-82
2021/12/25 00:31:52;;;;;;;;;;;;;;;7.91;100.00;99347.66;5110059;28;19927;-82
2021/12/25 00:34:20;;;;;;;;;;;;;;;7.87;100.00;99357.72;5102275;28;19926;-82
2021/12/25 00:36:45;;;;;;;;;;;;;;;7.92;100.00;99357.22;5107496;28;19920;-82
2021/12/25 00:39:10;;;;;;;;;;;;;;;7.93;100.00;99348.34;5108231;28;19974;-83
2021/12/25 00:41:35;;;;;;;;;;;;;;;7.92;100.00;99346.69;5107763;28;19920;-82
2021/12/25 00:44:01;;;;;;;;;;;;;;;7.92;100.00;99352.78;5112661;28;19998;-82
2021/12/25 00:46:26;;;;;;;;;;;;;;;7.92;100.00;99341.44;5112318;28;20010;-82
2021/12/25 00:48:51;;;;;;;;;;;;;;;7.92;100.00;99336.19;5109487;28;19920;-82
2021/12/25 00:51:16;;;;;;;;;;;;;;;7.83;100.00;99333.53;5092594;28;20434;-81
2021/12/25 00:53:43;;;;;;;;;;;;;;;7.86;100.00;99335.84;5109884;28;19977;-82
2021/12/25 00:56:09;;;;;;;;;;;;;;;7.77;100.00;99328.09;5101957;28;19924;-82
2021/12/25 00:58:34;;;;;;;;;;;;;;;7.77;100.00;99328.94;5103930;28;20346;-82
2021/12/25 01:00:59;;;;;;;;;;;;;;;7.82;100.00;99320.53;5097464;28;19973;-83
2021/12/25 01:03:24;;;;;;;;;;;;;;;7.84;100.00;99313.28;5117443;28;19984;-83
2021/12/25 01:05:50;;;;;;;;;;;;;;;7.87;100.00;99319.06;5112038;28;19919;-83
2021/12/25 01:08:15;;;;;;;;;;;;;;;7.82;100.00;99323.19;5092922;28;19916;-83
2021/12/25 01:10:41;;;;;;;;;;;;;;;7.68;100.00;99327.28;5101101;28;19993;-83
2021/12/25 01:13:13;;;;;;;;;;;;;;;7.68;100.00;99329.09;5101155;28;19920;-82
2021/12/25 01:29:22;;;;;;;;;;;;;;;7.73;100.00;99332.03;5109010;28;19924;-82
2021/12/25 01:49:29;;;;;;;;;;;;;;;7.60;100.00;99332.50;5108046;28;19931;-82
2021/12/25 01:51:54;;;;;;;;;;;;;;;7.65;100.00;99332.84;5110633;28;19916;-82
2021/12/25 01:54:20;;;;;;;;;;;;;;;7.70;100.00;99329.72;5114414;28;19926;-82
2021/12/25 01:56:46;;;;;;;;;;;;;;;7.68;100.00;99324.63;5117599;28;20011;-82
2021/12/25 01:59:11;;;;;;;;;;;;;;;7.69;100.00;99326.28;5112364;28;19916;-82
2021/12/25 02:01:37;;;;;;;;;;;;;;;7.69;100.00;99321.00;5094820;28;19938;-81
2021/12/25 02:04:02;;;;;;;;;;;;;;;7.69;100.00;99320.19;5118393;28;19912;-82
2021/12/25 02:06:27;;;;;;;;;;;;;;;7.62;100.00;99328.72;5104667;28;19934;-82
2021/12/25 02:08:52;;;;;;;;;;;;;;;7.58;100.00;99318.69;5114591;28;19983;-82
2021/12/25 02:11:18;;;;;;;;;;;;;;;7.56;100.00;99320.69;5081073;28;20289;-82
2021/12/25 02:13:43;;;;;;;;;;;;;;;7.55;100.00;99322.47;5096251;28;20365;-82
2021/12/25 02:16:14;;;;;;;;;;;;;;;7.55;100.00;99313.75;5112661;28;19973;-82
2021/12/25 02:21:25;;;;;;;;;;;;;;;7.50;100.00;99316.06;5104157;28;19922;-82
2021/12/25 02:23:50;;;;;;;;;;;;;;;7.51;100.00;99312.44;5124311;28;20296;-82
2021/12/25 02:26:17;;;;;;;;;;;;;;;7.56;100.00;99307.53;5123004;28;19924;-82
2021/12/25 02:28:43;;;;;;;;;;;;;;;7.54;100.00;99307.69;5092855;28;20356;-82
2021/12/25 02:31:09;;;;;;;;;;;;;;;7.57;100.00;99307.34;5107263;28;19916;-82
2021/12/25 02:33:35;;;;;;;;;;;;;;;7.58;100.00;99313.41;5091488;28;19942;-82
2021/12/25 02:36:00;;;;;;;;;;;;;;;7.57;100.00;99301.28;5108223;28;19920;-83
2021/12/25 02:38:26;;;;;;;;;;;;;;;7.56;100.00;99310.16;5114664;28;19926;-82
2021/12/25 02:40:51;;;;;;;;;;;;;;;7.51;100.00;99297.50;5107084;28;19916;-82
2021/12/25 02:43:17;;;;;;;;;;;;;;;7.55;100.00;99303.22;5110003;28;19920;-82
2021/12/25 02:45:42;;;;;;;;;;;;;;;7.59;100.00;99294.84;5107674;28;19920;-82
2021/12/25 02:48:10;;;;;;;;;;;;;;;7.62;100.00;99294.53;5117239;28;20026;-82
2021/12/25 02:50:37;;;;;;;;;;;;;;;7.63;100.00;99290.09;5105262;28;19931;-82
2021/12/25 02:53:04;;;;;;;;;;;;;;;7.57;100.00;99286.31;5111250;28;19983;-82
2021/12/25 02:55:30;;;;;;;;;;;;;;;7.58;100.00;99285.34;5112425;28;20023;-83
2021/12/25 02:57:55;;;;;;;;;;;;;;;7.57;100.00;99275.78;5121013;28;20124;-82
2021/12/25 03:00:22;;;;;;;;;;;;;;;7.62;100.00;99277.91;5114579;28;19920;-82
2021/12/25 03:02:48;;;;;;;;;;;;;;;7.61;100.00;99276.28;5110474;28;19999;-82
2021/12/25 03:05:13;;;;;;;;;;;;;;;7.63;100.00;99271.69;5104432;28;19930;-82
2021/12/25 03:07:39;;;;;;;;;;;;;;;7.62;100.00;99270.84;5120138;28;19920;-82
2021/12/25 03:10:05;;;;;;;;;;;;;;;7.62;100.00;99270.84;5115855;28;19930;-82
2021/12/25 03:12:37;;;;;;;;;;;;;;;7.61;100.00;99268.41;5121145;28;19920;-81
2021/12/25 03:15:06;;;;;;;;;;;;;;;7.60;100.00;99264.94;5112322;28;20174;-81
2021/12/25 03:17:33;;;;;;;;;;;;;;;7.57;100.00;99269.69;5107259;28;20027;-83
2021/12/25 03:19:58;;;;;;;;;;;;;;;7.57;100.00;99272.34;5126679;28;20390;-81
2021/12/25 03:22:24;;;;;;;;;;;;;;;7.55;100.00;99264.59;5105910;28;19920;-81
2021/12/25 03:24:49;;;;;;;;;;;;;;;7.55;100.00;99269.84;5126932;28;19958;-81
2021/12/25 03:27:14;;;;;;;;;;;;;;;7.53;100.00;99271.84;5106265;28;19920;-81
2021/12/25 03:29:40;;;;;;;;;;;;;;;7.49;100.00;99272.34;5104251;28;20018;-81
2021/12/25 03:32:06;;;;;;;;;;;;;;;7.50;100.00;99273.97;5121832;28;20279;-83
2021/12/25 03:34:31;;;;;;;;;;;;;;;7.52;100.00;99269.38;5110189;28;19978;-80
2021/12/25 03:36:56;;;;;;;;;;;;;;;7.49;100.00;99273.16;5089838;28;19923;-80
2021/12/25 03:39:21;;;;;;;;;;;;;;;7.47;100.00;99269.03;5104751;28;19948;-81
2021/12/25 03:41:47;;;;;;;;;;;;;;;7.45;100.00;99266.56;5092240;28;19920;-81
2021/12/25 03:44:12;;;;;;;;;;;;;;;7.49;100.00;99275.78;5099396;28;19916;-80
2021/12/25 03:46:39;;;;;;;;;;;;;;;7.55;100.00;99274.28;5106822;28;19965;-81
2021/12/25 03:49:10;;;;;;;;;;;;;;;7.59;100.00;99273.00;5110255;28;19926;-81
2021/12/25 03:59:57;;;;;;;;;;;;;;;7.67;100.00;99257.19;5113241;28;19927;-81
2021/12/25 04:02:28;;;;;;;;;;;;;;;7.67;100.00;99267.72;5101898;28;19962;-80
2021/12/25 04:04:53;;;;;;;;;;;;;;;7.67;100.00;99259.84;5102249;28;19916;-81
2021/12/25 04:07:43;;;;;;;;;;;;;;;7.72;100.00;99259.34;5101229;28;19920;-80
2021/12/25 04:10:04;;;;;;;;;;;;;;;7.69;100.00;99257.03;5101159;28;20346;-80
2021/12/25 04:12:30;;;;;;;;;;;;;;;7.64;100.00;99254.91;5102286;28;19951;-80
2021/12/25 04:14:55;;;;;;;;;;;;;;;7.62;100.00;99251.63;5102288;28;19924;-80
2021/12/25 04:17:20;;;;;;;;;;;;;;;7.62;100.00;99256.88;5100969;28;20395;-80
2021/12/25 04:19:46;;;;;;;;;;;;;;;7.63;100.00;99254.09;5107945;28;19920;-80
2021/12/25 04:22:18;;;;;;;;;;;;;;;7.63;100.00;99248.84;5100738;28;19920;-80
2021/12/25 04:24:45;;;;;;;;;;;;;;;7.57;100.00;99249.47;5101009;28;19915;-80
2021/12/25 04:27:14;;;;;;;;;;;;;;;7.53;100.00;99239.44;5113445;28;19923;-80
2021/12/25 04:29:54;;;;;;;;;;;;;;;7.58;100.00;99231.88;5090222;28;20186;-80
2021/12/25 04:49:13;;;;;;;;;;;;;;;7.50;100.00;99237.97;5110310;28;19941;-80
2021/12/25 05:04:51;;;;;;;;;;;;;;;7.51;100.00;99244.88;5099956;28;19980;-81
2021/12/25 05:07:16;;;;;;;;;;;;;;;7.57;100.00;99243.41;5098994;28;19958;-80
2021/12/25 05:09:41;;;;;;;;;;;;;;;7.56;100.00;99234.69;5087590;28;19920;-80
2021/12/25 05:12:07;;;;;;;;;;;;;;;7.56;100.00;99236.50;5108491;28;20465;-81
2021/12/25 05:14:32;;;;;;;;;;;;;;;7.59;100.00;99230.91;5081416;28;19920;-80
2021/12/25 05:16:57;;;;;;;;;;;;;;;7.62;100.00;99222.66;5084614;28;19979;-81
2021/12/25 05:19:22;;;;;;;;;;;;;;;7.56;100.00;99225.97;5118986;28;19919;-80
2021/12/25 05:21:48;;;;;;;;;;;;;;;7.45;100.00;99240.25;5089113;28;20258;-81
2021/12/25 05:24:13;;;;;;;;;;;;;;;7.35;100.00;99255.38;5093518;28;19943;-80
2021/12/25 05:26:38;;;;;;;;;;;;;;;7.38;100.00;99247.97;5098058;28;19938;-81
2021/12/25 05:29:05;;;;;;;;;;;;;;;7.54;100.00;99247.19;5115133;28;19919;-80
2021/12/25 05:31:33;;;;;;;;;;;;;;;7.53;100.00;99231.53;5117068;28;19944;-80
2021/12/25 05:33:58;;;;;;;;;;;;;;;7.48;100.00;99239.09;5107938;28;19931;-80
2021/12/25 05:36:27;;;;;;;;;;;;;;;7.43;100.00;99240.41;5110065;28;19920;-80
2021/12/25 05:38:57;;;;;;;;;;;;;;;7.44;100.00;99239.44;5081874;28;19926;-80
2021/12/25 05:41:27;;;;;;;;;;;;;;;7.48;100.00;99241.75;5098283;28;20007;-80
2021/12/25 05:43:52;;;;;;;;;;;;;;;7.54;100.00;99239.28;5104898;28;19920;-80
2021/12/25 05:46:18;;;;;;;;;;;;;;;7.58;100.00;99239.75;5082366;28;19943;-80
2021/12/25 05:48:43;;;;;;;;;;;;;;;7.57;100.00;99243.41;5098831;28;20214;-80
2021/12/25 05:51:08;;;;;;;;;;;;;;;7.55;100.00;99255.88;5103901;28;19928;-80
2021/12/25 05:53:33;;;;;;;;;;;;;;;7.54;100.00;99246.38;5104109;28;19995;-81
2021/12/25 05:55:59;;;;;;;;;;;;;;;7.59;100.00;99246.69;5103451;28;19924;-81
2021/12/25 05:58:24;;;;;;;;;;;;;;;7.56;100.00;99247.84;5093742;28;20396;-80
2021/12/25 06:00:49;;;;;;;;;;;;;;;7.55;100.00;99242.72;5094724;28;19924;-80
2021/12/25 06:03:14;;;;;;;;;;;;;;;7.52;100.00;99237.81;5095096;28;19938;-81
2021/12/25 06:05:40;;;;;;;;;;;;;;;7.52;100.00;99241.25;5104456;28;19920;-80
2021/12/25 06:08:05;;;;;;;;;;;;;;;7.57;100.00;99246.84;5105249;28;19974;-80
2021/12/25 06:10:30;;;;;;;;;;;;;;;7.58;100.00;99237.13;5101627;28;19926;-80
2021/12/25 06:12:58;;;;;;;;;;;;;;;7.51;100.00;99234.34;5116324;28;19926;-80
2021/12/25 06:15:24;;;;;;;;;;;;;;;7.54;100.00;99239.28;5104130;28;19942;-80
2021/12/25 06:17:50;;;;;;;;;;;;;;;7.59;100.00;99244.06;5109760;28;19920;-80
2021/12/25 06:20:15;;;;;;;;;;;;;;;7.61;100.00;99242.91;5106478;28;19920;-80
2021/12/25 06:22:40;;;;;;;;;;;;;;;7.62;100.00;99243.72;5106839;28;19920;-80
2021/12/25 06:25:06;;;;;;;;;;;;;;;7.63;100.00;99237.50;5102658;28;20350;-80
2021/12/25 06:27:32;;;;;;;;;;;;;;;7.62;100.00;99233.19;5104741;28;20376;-80
2021/12/25 06:29:57;;;;;;;;;;;;;;;7.61;100.00;99235.00;5116628;28;19999;-80
2021/12/25 06:32:22;;;;;;;;;;;;;;;7.59;100.00;99231.72;5083714;28;19961;-80
2021/12/25 06:34:48;;;;;;;;;;;;;;;7.60;100.00;99235.16;5093481;28;19923;-80
2021/12/25 06:37:13;;;;;;;;;;;;;;;7.59;100.00;99236.97;5096452;28;19920;-81
2021/12/25 06:39:40;;;;;;;;;;;;;;;7.60;100.00;99236.00;5105300;28;19972;-80
2021/12/25 06:42:05;;;;;;;;;;;;;;;7.62;100.00;99227.94;5120043;28;19919;-80
2021/12/25 06:44:31;;;;;;;;;;;;;;;7.63;100.00;99230.41;5091474;28;20011;-80
2021/12/25 06:46:56;;;;;;;;;;;;;;;7.64;100.00;99232.03;5104433;28;19927;-80
2021/12/25 06:49:22;;;;;;;;;;;;;;;7.63;100.00;99226.97;5101734;28;19931;-80
2021/12/25 06:51:48;;;;;;;;;;;;;;;7.65;100.00;99227.59;5084193;28;19928;-80
2021/12/25 06:54:14;;;;;;;;;;;;;;;7.65;100.00;99231.06;5093156;28;20391;-81
2021/12/25 06:56:39;;;;;;;;;;;;;;;7.65;100.00;99230.22;5110183;28;19919;-80
2021/12/25 06:59:04;;;;;;;;;;;;;;;7.62;100.00;99226.13;5097217;28;19950;-80
2021/12/25 07:01:29;;;;;;;;;;;;;;;7.57;100.00;99224.97;5104272;28;19950;-80
2021/12/25 07:03:55;;;;;;;;;;;;;;;7.58;100.00;99222.19;5110718;28;19920;-80
2021/12/25 07:06:23;;;;;;;;;;;;;;;7.58;100.00;99226.63;5118332;28;19935;-80
2021/12/25 07:08:49;;;;;;;;;;;;;;;7.53;100.00;99237.66;5109546;28;19920;-80
2021/12/25 07:11:14;;;;;;;;;;;;;;;7.53;100.00;99239.44;5103887;28;19919;-80
2021/12/25 07:13:43;;;;;;;;;;;;;;;7.54;100.00;99234.03;5099472;28;19931;-80
2021/12/25 07:16:09;;;;;;;;;;;;;;;7.56;100.00;99244.41;5116263;28;20349;-81
2021/12/25 07:18:34;;;;;;;;;;;;;;;7.53;100.00;99237.66;5104537;28;19923;-80
2021/12/25 07:20:59;;;;;;;;;;;;;;;7.55;100.00;99245.38;5101870;28;19941;-81
2021/12/25 07:23:24;;;;;;;;;;;;;;;7.55;100.00;99245.38;5110309;28;19920;-80
2021/12/25 07:25:50;;;;;;;;;;;;;;;7.55;100.00;99251.44;5099746;28;20281;-81
2021/12/25 07:28:15;;;;;;;;;;;;;;;7.54;100.00;99252.44;5098966;28;19916;-80
2021/12/25 07:30:40;;;;;;;;;;;;;;;7.49;100.00;99252.09;5112346;28;19920;-80
2021/12/25 07:33:05;;;;;;;;;;;;;;;7.44;100.00;99257.03;5117619;28;19915;-82
2021/12/25 07:35:31;;;;;;;;;;;;;;;7.42;100.00;99259.00;5099767;28;19927;-80
2021/12/25 07:37:56;;;;;;;;;;;;;;;7.41;100.00;99271.34;5091504;28;19920;-79
2021/12/25 07:40:21;;;;;;;;;;;;;;;7.41;100.00;99263.44;5103002;28;19919;-82
2021/12/25 07:42:47;;;;;;;;;;;;;;;7.44;100.00;99264.94;5106632;28;19942;-82
2021/12/25 07:45:12;;;;;;;;;;;;;;;7.45;100.00;99270.00;5106475;28;20190;-82
2021/12/25 07:47:41;;;;;;;;;;;;;;;7.47;100.00;99269.03;5104265;28;19975;-80
2021/12/25 07:50:07;;;;;;;;;;;;;;;7.50;100.00;99266.06;5102026;28;20372;-80
2021/12/25 07:52:33;;;;;;;;;;;;;;;7.52;100.00;99264.94;5094916;28;19927;-81
2021/12/25 07:54:58;;;;;;;;;;;;;;;7.50;100.00;99271.34;5120179;28;19923;-82
2021/12/25 07:57:24;;;;;;;;;;;;;;;7.56;100.00;99276.78;5118794;28;19916;-82
2021/12/25 07:59:49;;;;;;;;;;;;;;;7.51;100.00;99280.84;5082068;28;19924;-81
2021/12/25 08:02:14;;;;;;;;;;;;;;;7.48;100.00;99283.81;5118913;28;19984;-82
2021/12/25 08:04:39;;;;;;;;;;;;;;;7.48;100.00;99286.44;5120531;28;19938;-82
2021/12/25 08:07:04;;;;;;;;;;;;;;;7.51;100.00;99286.13;5100648;28;19962;-82
2021/12/25 08:09:31;;;;;;;;;;;;;;;7.51;100.00;99288.75;5100730;28;19916;-82
2021/12/25 08:11:56;;;;;;;;;;;;;;;7.51;100.00;99299.28;5095473;28;19982;-81
2021/12/25 08:14:25;;;;;;;;;;;;;;;7.47;100.00;99301.41;5117272;28;19955;-81
2021/12/25 08:16:50;;;;;;;;;;;;;;;7.44;100.00;99299.94;5113556;28;19939;-82
2021/12/25 08:19:15;;;;;;;;;;;;;;;7.42;100.00;99301.91;5103198;28;19919;-81
2021/12/25 08:21:41;;;;;;;;;;;;;;;7.43;100.00;99303.53;5098620;28;20154;-81
2021/12/25 08:24:06;;;;;;;;;;;;;;;7.36;100.00;99299.09;5091197;28;19919;-81
2021/12/25 08:26:31;;;;;;;;;;;;;;;7.27;100.00;99302.69;5097442;28;19920;-81
2021/12/25 08:28:56;;;;;;;;;;;;;;;7.31;100.00;99299.56;5096633;28;19948;-81
2021/12/25 08:31:21;;;;;;;;;;;;;;;7.34;100.00;99296.63;5111056;28;19920;-81
2021/12/25 08:33:47;;;;;;;;;;;;;;;7.38;100.00;99305.00;5096552;28;20009;-81
2021/12/25 08:36:12;;;;;;;;;;;;;;;7.41;100.00;99295.00;5103644;28;19924;-81
2021/12/25 08:38:37;;;;;;;;;;;;;;;7.49;100.00;99299.44;5097686;28;19928;-81
2021/12/25 08:41:02;;;;;;;;;;;;;;;7.47;100.00;99305.88;5106707;28;19926;-81
2021/12/25 08:43:33;;;;;;;;;;;;;;;7.43;100.00;99300.09;5099885;28;19920;-81
2021/12/25 08:46:15;;;;;;;;;;;;;;;7.40;100.00;99311.75;5106705;28;20394;-81
2021/12/25 08:48:40;;;;;;;;;;;;;;;7.39;100.00;99318.00;5093824;28;19919;-81
2021/12/25 08:51:05;;;;;;;;;;;;;;;7.49;100.00;99319.69;5115551;28;19934;-81
2021/12/25 08:53:31;;;;;;;;;;;;;;;7.45;100.00;99317.34;5117352;28;19943;-81
2021/12/25 08:55:57;;;;;;;;;;;;;;;7.43;100.00;99316.69;5098554;28;19948;-81
2021/12/25 08:58:23;;;;;;;;;;;;;;;7.41;100.00;99323.94;5108160;28;19920;-81
2021/12/25 09:00:50;;;;;;;;;;;;;;;7.35;100.00;99339.53;5104367;28;19927;-82
2021/12/25 09:03:16;;;;;;;;;;;;;;;7.45;100.00;99333.13;5110841;28;19919;-81
2021/12/25 09:05:41;;;;;;;;;;;;;;;7.49;100.00;99323.13;5118674;28;19915;-81
2021/12/25 09:08:06;;;;;;;;;;;;;;;7.44;100.00;99331.50;5106173;28;20334;-81
2021/12/25 09:10:31;;;;;;;;;;;;;;;7.47;100.00;99327.72;5095937;28;20007;-81
2021/12/25 09:12:57;;;;;;;;;;;;;;;7.58;100.00;99324.78;5100105;28;19924;-81
2021/12/25 09:15:23;;;;;;;;;;;;;;;7.60;100.00;99329.88;5116004;28;19934;-81
2021/12/25 09:17:48;;;;;;;;;;;;;;;7.58;100.00;99329.22;5107639;28;19920;-80
2021/12/25 09:20:18;;;;;;;;;;;;;;;7.58;100.00;99330.06;5097049;28;19927;-82
2021/12/25 09:22:43;;;;;;;;;;;;;;;7.66;100.00;99332.69;5095534;28;19926;-81
2021/12/25 09:25:08;;;;;;;;;;;;;;;7.70;100.00;99327.94;5095480;28;20007;-81
2021/12/25 09:27:34;;;;;;;;;;;;;;;7.71;100.00;99332.19;5090045;28;20018;-80
2021/12/25 09:29:59;;;;;;;;;;;;;;;7.69;100.00;99336.78;5115443;28;19981;-82
2021/12/25 09:32:24;;;;;;;;;;;;;;;7.65;100.00;99333.69;5106299;28;19931;-81
2021/12/25 09:34:50;;;;;;;;;;;;;;;7.56;100.00;99347.00;5116229;28;20014;-81
2021/12/25 09:37:15;;;;;;;;;;;;;;;7.56;100.00;99349.63;5108805;28;19928;-82
2021/12/25 09:39:41;;;;;;;;;;;;;;;7.60;100.00;99345.66;5104121;28;19923;-81
2021/12/25 09:42:06;;;;;;;;;;;;;;;7.54;100.00;99354.22;5079308;28;19920;-81
2021/12/25 09:44:31;;;;;;;;;;;;;;;7.56;100.00;99363.59;5107113;28;19920;-81
2021/12/25 09:46:57;;;;;;;;;;;;;;;7.59;100.00;99363.25;5101076;28;19920;-81
2021/12/25 09:49:22;;;;;;;;;;;;;;;7.61;100.00;99363.91;5112457;28;20006;-81
2021/12/25 09:51:48;;;;;;;;;;;;;;;7.57;100.00;99359.97;5105538;28;19927;-81
2021/12/25 09:54:15;;;;;;;;;;;;;;;7.46;100.00;99365.53;5096743;28;19970;-81
2021/12/25 09:56:41;;;;;;;;;;;;;;;7.41;100.00;99363.38;5100227;28;19927;-81
2021/12/25 09:59:10;;;;;;;;;;;;;;;7.41;100.00;99370.44;5098402;28;19920;-82
2021/12/25 10:01:45;;;;;;;;;;;;;;;7.47;100.00;99371.63;5100675;28;20396;-81
2021/12/25 10:04:31;;;;;;;;;;;;;;;7.52;100.00;99367.50;5094948;28;19920;-81
2021/12/25 10:06:56;;;;;;;;;;;;;;;7.45;100.00;99363.88;5070214;28;19927;-81
2021/12/25 10:09:24;;;;;;;;;;;;;;;7.43;100.00;99371.91;5109331;28;19924;-83
2021/12/25 10:11:59;;;;;;;;;;;;;;;7.31;100.00;99386.34;5107307;28;19987;-81
2021/12/25 10:14:25;;;;;;;;;;;;;;;7.17;100.00;99390.38;5113964;28;20420;-81
2021/12/25 10:16:50;;;;;;;;;;;;;;;6.88;100.00;99384.69;5113457;28;19955;-81
2021/12/25 10:19:17;;;;;;;;;;;;;;;6.76;100.00;99379.69;5106918;28;19927;-80
2021/12/25 10:21:42;;;;;;;;;;;;;;;6.61;100.00;99388.31;5112035;28;19955;-81
2021/12/25 10:24:11;;;;;;;;;;;;;;;6.55;100.00;99393.19;5098501;28;20454;-81
2021/12/25 10:26:37;;;;;;;;;;;;;;;6.59;100.00;99388.44;5086219;28;19923;-81
2021/12/25 10:29:15;;;;;;;;;;;;;;;6.41;100.00;99390.28;5116189;28;20380;-81
2021/12/25 10:31:40;;;;;;;;;;;;;;;6.26;100.00;99393.44;5104557;28;19920;-81
2021/12/25 10:34:12;;;;;;;;;;;;;;;6.34;100.00;99390.91;5100559;28;19930;-80
2021/12/25 10:36:38;;;;;;;;;;;;;;;6.13;100.00;99388.59;5091544;28;19951;-81
2021/12/25 10:39:05;;;;;;;;;;;;;;;5.99;100.00;99391.75;5105664;28;19920;-80
2021/12/25 10:41:31;;;;;;;;;;;;;;;6.03;100.00;99389.63;5104654;28;20315;-81
2021/12/25 10:44:16;;;;;;;;;;;;;;;5.96;100.00;99386.81;5098374;28;19920;-81
2021/12/25 10:47:00;;;;;;;;;;;;;;;5.85;100.00;99393.06;5097642;28;19965;-81
2021/12/25 10:49:27;;;;;;;;;;;;;;;5.83;100.00;99391.56;5091389;28;19920;-81
2021/12/25 10:51:53;;;;;;;;;;;;;;;5.74;100.00;99393.28;5119072;28;19916;-81
2021/12/25 10:54:19;;;;;;;;;;;;;;;5.72;100.00;99388.19;5109903;28;19927;-79
2021/12/25 10:56:46;;;;;;;;;;;;;;;5.63;100.00;99394.31;5112069;28;19924;-81
2021/12/25 10:59:12;;;;;;;;;;;;;;;5.56;100.00;99393.25;5120215;28;20383;-81
2021/12/25 11:01:39;;;;;;;;;;;;;;;5.57;100.00;99392.28;5114795;28;19920;-81
2021/12/25 11:04:04;;;;;;;;;;;;;;;5.63;100.00;99394.31;5115061;28;19920;-81
2021/12/25 11:06:30;;;;;;;;;;;;;;;5.49;100.00;99387.78;5099086;28;19965;-81
2021/12/25 11:08:57;;;;;;;;;;;;;;;5.56;100.00;99382.78;5083650;28;20385;-81
2021/12/25 11:11:23;;;;;;;;;;;;;;;5.59;100.00;99379.84;5106103;28;19926;-81
2021/12/25 11:13:50;;;;;;;;;;;;;;;5.63;100.00;99389.06;5106426;28;20534;-81
2021/12/25 11:16:35;;;;;;;;;;;;;;;5.65;100.00;99376.66;5112493;28;19939;-80
2021/12/25 11:19:11;;;;;;;;;;;;;;;5.59;100.00;99385.09;5110352;28;19986;-81
2021/12/25 11:21:36;;;;;;;;;;;;;;;5.50;100.00;99394.66;5095870;28;20174;-80
2021/12/25 11:24:14;;;;;;;;;;;;;;;5.36;100.00;99395.16;5084225;28;19916;-81
2021/12/25 11:26:40;;;;;;;;;;;;;;;5.29;100.00;99391.47;5108856;28;19971;-81
2021/12/25 11:29:07;;;;;;;;;;;;;;;5.35;100.00;99392.69;5104667;28;19920;-81
2021/12/25 11:31:32;;;;;;;;;;;;;;;5.30;100.00;99390.50;5080667;28;20273;-81
2021/12/25 11:33:58;;;;;;;;;;;;;;;5.37;100.00;99394.19;5100121;28;19920;-81
2021/12/25 11:36:23;;;;;;;;;;;;;;;5.44;100.00;99389.19;5104550;28;19938;-81
2021/12/25 11:38:49;;;;;;;;;;;;;;;5.58;100.00;99388.69;5107582;28;19924;-81
2021/12/25 11:41:15;;;;;;;;;;;;;;;5.62;100.00;99391.84;5097764;28;19924;-81
2021/12/25 11:43:43;;;;;;;;;;;;;;;5.63;100.00;99386.47;5094018;28;19920;-81
2021/12/25 11:46:09;;;;;;;;;;;;;;;5.57;100.00;99383.59;5105422;28;19958;-81
2021/12/25 11:48:35;;;;;;;;;;;;;;;5.47;100.00;99392.34;5105965;28;20300;-81
2021/12/25 11:51:00;;;;;;;;;;;;;;;5.50;100.00;99385.97;5101229;28;19924;-81
2021/12/25 11:54:03;;;;;;;;;;;;;;;5.54;100.00;99384.72;5096730;28;20363;-80
2021/12/25 11:56:45;;;;;;;;;;;;;;;5.63;100.00;99380.41;5105498;28;19988;-81
2021/12/25 11:59:12;;;;;;;;;;;;;;;5.68;100.00;99381.59;5104916;28;20352;-81
2021/12/25 12:01:37;;;;;;;;;;;;;;;5.70;100.00;99373.56;5101910;28;19927;-81
2021/12/25 12:04:04;;;;;;;;;;;;;;;5.58;100.00;99375.59;5110022;28;20380;-81
2021/12/25 12:06:47;;;;;;;;;;;;;;;5.59;100.00;99377.22;5103062;28;19919;-81
2021/12/25 12:09:13;;;;;;;;;;;;;;;5.52;100.00;99384.03;5093583;28;20756;-81
2021/12/25 12:11:40;;;;;;;;;;;;;;;5.51;100.00;99385.03;5100044;28;19928;-80
2021/12/25 12:14:11;;;;;;;;;;;;;;;5.59;100.00;99387.72;5106304;28;19927;-81
2021/12/25 12:16:38;;;;;;;;;;;;;;;5.56;100.00;99397.69;5103866;28;20099;-81
2021/12/25 12:19:03;;;;;;;;;;;;;;;5.59;100.00;99400.00;5108625;28;20478;-81
2021/12/25 12:21:36;;;;;;;;;;;;;;;5.51;100.00;99406.81;5105948;28;19992;-81
2021/12/25 12:27:09;;;;;;;;;;;;;;;5.36;100.00;99394.34;5102476;28;19931;-81
2021/12/25 12:29:42;;;;;;;;;;;;;;;5.26;100.00;99389.97;5080480;28;19920;-81
2021/12/25 12:32:34;;;;;;;;;;;;;;;4.92;100.00;99394.94;5105741;28;19920;-81
2021/12/25 12:34:59;;;;;;;;;;;;;;;5.10;100.00;99387.97;5080536;28;19928;-81
2021/12/25 12:37:26;;;;;;;;;;;;;;;5.17;100.00;99398.69;5078665;28;19923;-80
2021/12/25 12:40:04;;;;;;;;;;;;;;;5.27;100.00;99403.91;5096803;28;19920;-81
2021/12/25 12:42:38;;;;;;;;;;;;;;;5.32;100.00;99397.25;5096761;28;19920;-80
2021/12/25 12:45:08;;;;;;;;;;;;;;;5.39;100.00;99396.69;5106873;28;19973;-80
2021/12/25 12:47:33;;;;;;;;;;;;;;;5.35;100.00;99396.13;5105605;28;19920;-80
2021/12/25 12:50:00;;;;;;;;;;;;;;;5.38;100.00;99395.84;5085866;28;19935;-80
2021/12/25 12:52:25;;;;;;;;;;;;;;;5.31;100.00;99394.78;5098951;28;19981;-80
2021/12/25 12:54:52;;;;;;;;;;;;;;;5.36;100.00;99402.19;5099941;28;19974;-80
2021/12/25 12:57:28;;;;;;;;;;;;;;;5.27;100.00;99406.53;5096261;28;19996;-80
2021/12/25 12:59:58;;;;;;;;;;;;;;;5.17;100.00;99403.09;5099379;28;19920;-80
2021/12/25 13:02:25;;;;;;;;;;;;;;;5.07;100.00;99403.16;5104273;28;19919;-80
2021/12/25 13:04:55;;;;;;;;;;;;;;;5.14;100.00;99409.47;5105341;28;19920;-80
2021/12/25 13:07:21;;;;;;;;;;;;;;;5.19;100.00;99407.22;5099734;28;20021;-80
2021/12/25 13:09:55;;;;;;;;;;;;;;;4.99;100.00;99416.97;5110632;28;20014;-80
2021/12/25 13:12:38;;;;;;;;;;;;;;;5.02;100.00;99410.63;5113500;28;19927;-81
2021/12/25 13:15:11;;;;;;;;;;;;;;;4.89;100.00;99411.78;5112569;28;20022;-80
2021/12/25 13:17:37;;;;;;;;;;;;;;;4.98;100.00;99417.13;5108946;28;19930;-80
2021/12/25 13:20:03;;;;;;;;;;;;;;;4.92;100.00;99422.94;5093250;28;19923;-80
2021/12/25 13:22:29;;;;;;;;;;;;;;;4.78;100.00;99416.34;5097059;28;20412;-81
2021/12/25 13:25:03;;;;;;;;;;;;;;;4.85;100.00;99409.59;5105489;28;19971;-80
2021/12/25 13:27:28;;;;;;;;;;;;;;;4.92;100.00;99412.47;5107135;28;19954;-81
2021/12/25 13:29:53;;;;;;;;;;;;;;;4.91;100.00;99409.03;5080257;28;19978;-81
2021/12/25 13:32:25;;;;;;;;;;;;;;;4.87;100.00;99411.09;5108433;28;19967;-81
2021/12/25 13:34:50;;;;;;;;;;;;;;;4.79;100.00;99424.09;5095047;28;20502;-80
2021/12/25 13:37:17;;;;;;;;;;;;;;;4.90;100.00;99426.50;5107144;28;19931;-80
2021/12/25 13:39:42;;;;;;;;;;;;;;;4.89;100.00;99437.16;5091283;28;19923;-81
2021/12/25 13:42:10;;;;;;;;;;;;;;;4.85;100.00;99430.53;5106223;28;19923;-82
2021/12/25 13:44:36;;;;;;;;;;;;;;;4.89;100.00;99427.50;5082112;28;19927;-80
2021/12/25 13:47:03;;;;;;;;;;;;;;;4.96;100.00;99427.75;5100120;28;19920;-80
2021/12/25 13:49:45;;;;;;;;;;;;;;;4.87;100.00;99436.47;5098207;28;19920;-80
2021/12/25 13:52:20;;;;;;;;;;;;;;;4.92;100.00;99430.81;5097139;28;19923;-81
2021/12/25 13:54:46;;;;;;;;;;;;;;;4.99;97.50;99431.88;5098111;28;19916;-81
2021/12/25 13:57:13;;;;;;;;;;;;;;;4.84;99.11;99437.56;5112465;28;19942;-81
2021/12/25 13:59:39;;;;;;;;;;;;;;;4.70;100.00;99435.41;5089543;28;19951;-81
2021/12/25 14:02:07;;;;;;;;;;;;;;;4.79;99.91;99444.19;5101022;28;19919;-81
2021/12/25 14:04:33;;;;;;;;;;;;;;;4.83;99.46;99443.75;5110764;28;19955;-81
2021/12/25 14:06:59;;;;;;;;;;;;;;;4.81;100.00;99444.88;5080265;28;20005;-80